createdAt,value
2018-07-26T00:00:32.871Z,61.18
2018-07-26T00:01:33.639Z,61.56
2018-07-26T00:02:34.413Z,61.55
2018-07-26T00:03:35.225Z,61.59
2018-07-26T00:04:36.000Z,61.04
2018-07-26T00:05:36.773Z,61.16
2018-07-26T00:06:37.549Z,61.59
2018-07-26T00:07:38.325Z,62.00
2018-07-26T00:08:39.133Z,62.94
2018-07-26T00:09:39.912Z,62.74
2018-07-26T00:10:40.686Z,62.78
2018-07-26T00:11:41.462Z,63.45
2018-07-26T00:12:42.237Z,63.65
2018-07-26T00:13:43.043Z,63.96
2018-07-26T00:14:43.827Z,63.32
2018-07-26T00:15:44.603Z,62.79
2018-07-26T00:16:45.391Z,63.22
2018-07-26T00:17:46.155Z,63.72
2018-07-26T00:18:46.966Z,63.74
2018-07-26T00:19:47.738Z,64.02
2018-07-26T00:20:48.513Z,64.22
2018-07-26T00:21:49.289Z,64.44
2018-07-26T00:22:50.068Z,64.09
2018-07-26T00:23:50.871Z,64.16
2018-07-26T00:24:51.649Z,64.25
2018-07-26T00:25:52.424Z,64.51
2018-07-26T00:26:53.200Z,64.34
2018-07-26T00:27:53.984Z,65.20
2018-07-26T00:28:54.792Z,66.17
2018-07-26T00:29:55.563Z,66.77
2018-07-26T00:30:56.347Z,67.37
2018-07-26T00:31:57.111Z,67.64
2018-07-26T00:32:57.900Z,67.46
2018-07-26T00:33:58.705Z,68.55
2018-07-26T00:34:59.476Z,68.77
2018-07-26T00:36:00.252Z,68.80
2018-07-26T00:37:01.030Z,68.93
2018-07-26T00:38:01.818Z,68.84
2018-07-26T00:39:02.610Z,69.00
2018-07-26T00:40:03.391Z,69.34
2018-07-26T00:41:04.164Z,69.23
2018-07-26T00:42:04.941Z,69.54
2018-07-26T00:43:04.717Z,69.38
2018-07-26T00:44:06.528Z,69.51
2018-07-26T00:45:07.726Z,69.65
2018-07-26T00:46:15.166Z,67.74
2018-07-26T00:47:15.939Z,67.52
2018-07-26T00:48:16.722Z,68.32
2018-07-26T00:49:17.525Z,67.02
2018-07-26T00:50:18.316Z,66.57
2018-07-26T00:51:19.096Z,67.08
2018-07-26T00:52:18.852Z,67.37
2018-07-26T00:53:20.626Z,67.71
2018-07-26T00:54:21.431Z,67.58
2018-07-26T00:55:22.207Z,67.90
2018-07-26T00:56:22.981Z,68.15
2018-07-26T00:57:23.759Z,68.42
2018-07-26T00:58:24.530Z,68.72
2018-07-26T00:59:25.354Z,68.78
2018-07-26T01:00:26.109Z,68.75
2018-07-26T01:01:26.890Z,68.11
2018-07-26T01:02:27.657Z,68.55
2018-07-26T01:03:28.435Z,68.30
2018-07-26T01:04:29.241Z,68.24
2018-07-26T01:05:30.023Z,68.01
2018-07-26T01:06:30.802Z,68.45
2018-07-26T01:07:31.569Z,69.19
2018-07-26T01:08:32.347Z,69.42
2018-07-26T01:09:33.256Z,69.87
2018-07-26T01:10:32.943Z,70.17
2018-07-26T01:11:34.724Z,69.89
2018-07-26T01:12:35.499Z,69.41
2018-07-26T01:13:36.273Z,68.05
2018-07-26T01:14:37.076Z,68.06
2018-07-26T01:15:37.851Z,67.73
2018-07-26T01:16:38.710Z,67.74
2018-07-26T01:17:38.426Z,67.29
2018-07-26T01:18:40.201Z,67.53
2018-07-26T01:19:41.012Z,66.98
2018-07-26T01:20:41.785Z,66.54
2018-07-26T01:21:42.568Z,65.37
2018-07-26T01:22:43.332Z,64.68
2018-07-26T01:23:44.109Z,64.78
2018-07-26T01:24:44.908Z,64.34
2018-07-26T01:25:45.689Z,65.29
2018-07-26T01:26:46.460Z,65.43
2018-07-26T01:27:47.239Z,64.96
2018-07-26T01:28:48.013Z,65.04
2018-07-26T01:29:48.822Z,65.22
2018-07-26T01:30:49.597Z,66.00
2018-07-26T01:31:50.369Z,66.10
2018-07-26T01:32:51.177Z,65.61
2018-07-26T01:33:51.927Z,65.79
2018-07-26T01:34:52.741Z,65.55
2018-07-26T01:35:53.510Z,65.70
2018-07-26T01:36:54.286Z,65.74
2018-07-26T01:37:55.064Z,65.65
2018-07-26T01:38:55.845Z,64.83
2018-07-26T01:39:56.649Z,65.00
2018-07-26T01:40:57.425Z,65.33
2018-07-26T01:41:58.289Z,65.94
2018-07-26T01:42:57.990Z,65.82
2018-07-26T01:43:59.775Z,65.50
2018-07-26T01:45:00.578Z,65.34
2018-07-26T01:46:01.351Z,64.64
2018-07-26T01:47:02.130Z,64.33
2018-07-26T01:48:02.916Z,63.94
2018-07-26T01:49:03.678Z,63.74
2018-07-26T01:50:04.489Z,64.11
2018-07-26T01:51:05.261Z,64.36
2018-07-26T01:52:06.045Z,64.59
2018-07-26T01:53:06.851Z,64.38
2018-07-26T01:54:07.604Z,64.32
2018-07-26T01:55:08.416Z,64.10
2018-07-26T01:56:09.183Z,64.44
2018-07-26T01:57:09.968Z,64.81
2018-07-26T01:58:09.739Z,65.63
2018-07-26T01:59:11.514Z,66.08
2018-07-26T02:00:13.330Z,66.51
2018-07-26T02:01:13.106Z,66.42
2018-07-26T02:02:13.880Z,66.18
2018-07-26T02:03:14.655Z,66.19
2018-07-26T02:04:15.429Z,66.54
2018-07-26T02:05:16.240Z,66.12
2018-07-26T02:06:17.014Z,65.71
2018-07-26T02:07:17.790Z,65.29
2018-07-26T02:08:18.566Z,65.08
2018-07-26T02:09:19.345Z,64.56
2018-07-26T02:10:20.152Z,64.64
2018-07-26T02:11:20.939Z,64.17
2018-07-26T02:12:21.716Z,64.54
2018-07-26T02:13:22.485Z,63.86
2018-07-26T02:14:23.281Z,64.42
2018-07-26T02:15:24.066Z,63.98
2018-07-26T02:16:24.842Z,64.27
2018-07-26T02:17:25.645Z,64.42
2018-07-26T02:18:26.404Z,64.13
2018-07-26T02:19:27.179Z,64.41
2018-07-26T02:20:27.984Z,64.06
2018-07-26T02:21:28.765Z,64.58
2018-07-26T02:22:29.537Z,64.52
2018-07-26T02:23:30.317Z,64.33
2018-07-26T02:24:31.092Z,64.30
2018-07-26T02:25:31.894Z,63.88
2018-07-26T02:26:32.673Z,64.10
2018-07-26T02:27:33.445Z,63.98
2018-07-26T02:28:34.220Z,64.02
2018-07-26T02:29:35.001Z,64.13
2018-07-26T02:30:35.814Z,63.95
2018-07-26T02:31:36.593Z,64.10
2018-07-26T02:32:37.362Z,64.60
2018-07-26T02:33:38.141Z,64.92
2018-07-26T02:34:38.912Z,64.74
2018-07-26T02:35:39.717Z,64.55
2018-07-26T02:36:40.565Z,64.16
2018-07-26T02:37:40.268Z,63.88
2018-07-26T02:38:42.480Z,64.03
2018-07-26T02:41:46.982Z,62.58
2018-07-26T02:42:47.755Z,62.59
2018-07-26T02:43:48.531Z,62.48
2018-07-26T02:44:49.337Z,62.79
2018-07-26T02:45:50.106Z,62.95
2018-07-26T02:46:50.877Z,63.26
2018-07-26T02:47:51.655Z,62.80
2018-07-26T02:48:52.429Z,63.23
2018-07-26T02:49:53.229Z,63.73
2018-07-26T02:50:54.005Z,63.20
2018-07-26T02:51:54.782Z,64.32
2018-07-26T02:52:55.557Z,63.27
2018-07-26T02:53:56.333Z,64.32
2018-07-26T02:54:57.157Z,65.32
2018-07-26T02:55:57.929Z,65.02
2018-07-26T02:56:58.705Z,65.37
2018-07-26T02:57:59.477Z,65.04
2018-07-26T02:59:00.253Z,64.53
2018-07-26T03:00:01.057Z,64.76
2018-07-26T03:01:01.829Z,64.60
2018-07-26T03:02:02.611Z,64.68
2018-07-26T03:03:04.385Z,64.70
2018-07-26T03:04:04.161Z,65.00
2018-07-26T03:05:05.416Z,64.89
2018-07-26T03:06:05.178Z,64.68
2018-07-26T03:07:06.046Z,64.63
2018-07-26T03:08:05.732Z,64.98
2018-07-26T03:09:07.515Z,64.93
2018-07-26T03:10:08.320Z,64.52
2018-07-26T03:11:09.084Z,64.41
2018-07-26T03:12:09.856Z,64.50
2018-07-26T03:13:10.640Z,64.63
2018-07-26T03:14:11.419Z,64.93
2018-07-26T03:15:12.217Z,64.81
2018-07-26T03:16:12.991Z,65.01
2018-07-26T03:17:13.768Z,64.48
2018-07-26T03:18:14.543Z,65.04
2018-07-26T03:19:15.319Z,65.50
2018-07-26T03:20:16.131Z,65.60
2018-07-26T03:21:16.908Z,65.29
2018-07-26T03:22:17.769Z,65.90
2018-07-26T03:23:17.470Z,66.31
2018-07-26T03:24:19.244Z,66.30
2018-07-26T03:25:20.688Z,66.53
2018-07-26T03:26:20.467Z,66.57
2018-07-26T03:27:21.250Z,66.61
2018-07-26T03:28:22.035Z,66.89
2018-07-26T03:29:22.799Z,67.18
2018-07-26T03:30:23.613Z,67.45
2018-07-26T03:31:24.384Z,67.45
2018-07-26T03:32:25.158Z,68.19
2018-07-26T03:33:25.929Z,68.71
2018-07-26T03:34:26.707Z,68.79
2018-07-26T03:35:27.508Z,66.85
2018-07-26T03:36:27.388Z,67.56
2018-07-26T03:37:29.088Z,67.77
2018-07-26T03:38:29.956Z,67.48
2018-07-26T03:39:29.658Z,67.42
2018-07-26T03:40:31.464Z,67.25
2018-07-26T03:41:32.266Z,67.43
2018-07-26T03:42:33.117Z,67.33
2018-07-26T03:43:32.847Z,67.18
2018-07-26T03:44:33.617Z,67.49
2018-07-26T03:45:35.405Z,68.11
2018-07-26T03:46:36.185Z,68.06
2018-07-26T03:47:36.964Z,67.83
2018-07-26T03:48:37.742Z,68.28
2018-07-26T03:49:38.523Z,68.53
2018-07-26T03:50:39.327Z,68.75
2018-07-26T03:51:40.188Z,68.67
2018-07-26T03:52:39.930Z,68.57
2018-07-26T03:53:40.669Z,68.57
2018-07-26T03:54:43.443Z,68.55
2018-07-26T03:55:43.249Z,68.76
2018-07-26T03:56:43.025Z,69.08
2018-07-26T03:57:44.848Z,68.61
2018-07-26T03:58:44.579Z,68.66
2018-07-26T03:59:46.356Z,67.81
2018-07-26T04:00:47.163Z,68.27
2018-07-26T04:01:47.932Z,68.13
2018-07-26T04:02:48.711Z,68.93
2018-07-26T04:03:49.489Z,69.01
2018-07-26T04:04:50.265Z,69.20
2018-07-26T04:05:51.069Z,69.34
2018-07-26T04:06:51.848Z,69.42
2018-07-26T04:07:52.629Z,69.84
2018-07-26T04:08:53.403Z,70.14
2018-07-26T04:09:54.182Z,70.42
2018-07-26T04:10:54.993Z,70.31
2018-07-26T04:11:55.765Z,71.05
2018-07-26T04:12:56.544Z,70.62
2018-07-26T04:13:57.340Z,70.78
2018-07-26T04:14:57.093Z,70.94
2018-07-26T04:15:58.917Z,70.83
2018-07-26T04:16:59.686Z,70.39
2018-07-26T04:18:00.469Z,69.48
2018-07-26T04:19:01.240Z,69.68
2018-07-26T04:20:02.038Z,69.76
2018-07-26T04:21:01.823Z,69.44
2018-07-26T04:22:03.593Z,68.77
2018-07-26T04:23:04.380Z,68.81
2018-07-26T04:24:05.158Z,68.89
2018-07-26T04:25:05.939Z,68.37
2018-07-26T04:26:06.763Z,68.27
2018-07-26T04:27:06.512Z,68.41
2018-07-26T04:28:08.294Z,68.69
2018-07-26T04:29:09.063Z,68.16
2018-07-26T04:30:09.843Z,68.47
2018-07-26T04:31:10.654Z,68.67
2018-07-26T04:32:11.485Z,68.44
2018-07-26T04:33:11.209Z,68.29
2018-07-26T04:34:12.979Z,68.49
2018-07-26T04:35:13.758Z,68.72
2018-07-26T04:36:14.557Z,68.37
2018-07-26T04:37:15.344Z,68.38
2018-07-26T04:38:16.108Z,68.14
2018-07-26T04:39:16.892Z,67.90
2018-07-26T04:40:17.665Z,67.84
2018-07-26T04:41:18.571Z,67.94
2018-07-26T04:42:18.711Z,67.53
2018-07-26T04:43:19.970Z,66.95
2018-07-26T04:44:19.236Z,67.11
2018-07-26T04:45:25.682Z,66.89
2018-07-26T04:46:27.487Z,66.90
2018-07-26T04:47:28.259Z,66.84
2018-07-26T04:48:29.042Z,66.77
2018-07-26T04:49:29.811Z,66.62
2018-07-26T04:50:30.592Z,65.67
2018-07-26T04:51:31.400Z,65.33
2018-07-26T04:52:32.175Z,64.97
2018-07-26T04:53:32.963Z,64.73
2018-07-26T04:54:33.743Z,64.37
2018-07-26T04:55:33.503Z,63.78
2018-07-26T04:56:35.313Z,63.21
2018-07-26T04:57:35.088Z,62.56
2018-07-26T04:58:36.872Z,61.65
2018-07-26T04:59:37.650Z,60.40
2018-07-26T05:00:38.441Z,59.56
2018-07-26T05:01:39.241Z,58.84
2018-07-26T05:02:40.020Z,57.30
2018-07-26T05:03:40.790Z,55.95
2018-07-26T05:04:41.567Z,54.83
2018-07-26T05:05:42.354Z,54.36
2018-07-26T05:06:43.162Z,53.84
2018-07-26T05:07:43.945Z,52.85
2018-07-26T05:08:44.711Z,53.04
2018-07-26T05:09:45.490Z,52.12
2018-07-26T05:10:46.270Z,51.80
2018-07-26T05:11:47.094Z,50.67
2018-07-26T05:12:47.859Z,49.86
2018-07-26T05:13:48.640Z,49.51
2018-07-26T05:14:49.405Z,48.93
2018-07-26T05:15:50.184Z,47.36
2018-07-26T05:16:50.985Z,47.40
2018-07-26T05:17:51.768Z,46.98
2018-07-26T05:18:52.541Z,46.48
2018-07-26T05:19:53.319Z,45.84
2018-07-26T05:20:55.093Z,45.23
2018-07-26T05:21:55.242Z,44.93
2018-07-26T05:22:55.017Z,45.13
2018-07-26T05:23:55.801Z,44.37
2018-07-26T05:24:56.569Z,43.98
2018-07-26T05:25:57.352Z,44.29
2018-07-26T05:26:58.151Z,42.68
2018-07-26T05:27:58.926Z,43.20
2018-07-26T05:28:59.748Z,43.35
2018-07-26T05:30:00.520Z,43.04
2018-07-26T05:31:01.291Z,42.64
2018-07-26T05:32:02.111Z,41.83
2018-07-26T05:33:01.870Z,41.39
2018-07-26T05:34:03.697Z,40.56
2018-07-26T05:35:03.427Z,39.94
2018-07-26T05:36:05.225Z,40.01
2018-07-26T05:37:06.018Z,39.78
2018-07-26T05:38:06.796Z,39.63
2018-07-26T05:39:07.590Z,39.20
2018-07-26T05:40:08.357Z,38.54
2018-07-26T05:41:09.115Z,38.63
2018-07-26T05:42:09.922Z,38.04
2018-07-26T05:43:10.734Z,38.52
2018-07-26T05:44:10.481Z,38.00
2018-07-26T05:45:12.255Z,37.96
2018-07-26T05:46:13.033Z,37.30
2018-07-26T05:47:13.846Z,37.49
2018-07-26T05:48:14.624Z,36.42
2018-07-26T05:49:15.397Z,36.51
2018-07-26T05:50:16.185Z,36.27
2018-07-26T05:51:16.946Z,36.46
2018-07-26T05:52:17.760Z,36.08
2018-07-26T05:53:18.560Z,36.64
2018-07-26T05:54:18.313Z,36.52
2018-07-26T05:55:20.084Z,36.74
2018-07-26T05:56:20.866Z,36.55
2018-07-26T05:57:21.670Z,35.93
2018-07-26T05:58:22.538Z,34.80
2018-07-26T05:59:22.240Z,34.63
2018-07-26T06:00:24.015Z,33.89
2018-07-26T06:01:24.795Z,34.30
2018-07-26T06:02:25.595Z,33.46
2018-07-26T06:03:26.382Z,33.64
2018-07-26T06:04:27.155Z,33.62
2018-07-26T06:05:27.955Z,32.68
2018-07-26T06:06:28.717Z,32.66
2018-07-26T06:07:29.532Z,32.67
2018-07-26T06:08:30.304Z,32.69
2018-07-26T06:09:31.088Z,32.87
2018-07-26T06:10:31.862Z,32.26
2018-07-26T06:11:32.643Z,32.24
2018-07-26T06:12:33.453Z,32.26
2018-07-26T06:13:34.233Z,32.93
2018-07-26T06:14:36.006Z,33.21
2018-07-26T06:15:35.781Z,32.59
2018-07-26T06:16:36.574Z,33.21
2018-07-26T06:17:37.374Z,32.38
2018-07-26T06:18:37.160Z,31.86
2018-07-26T06:19:38.929Z,31.06
2018-07-26T06:20:39.729Z,31.21
2018-07-26T06:21:39.479Z,30.67
2018-07-26T06:22:41.285Z,30.70
2018-07-26T06:23:42.071Z,30.21
2018-07-26T06:24:42.857Z,29.50
2018-07-26T06:25:43.633Z,29.38
2018-07-26T06:26:44.433Z,29.94
2018-07-26T06:27:44.214Z,30.03
2018-07-26T06:28:45.985Z,29.51
2018-07-26T06:29:46.762Z,28.62
2018-07-26T06:30:47.539Z,28.33
2018-07-26T06:31:48.322Z,28.91
2018-07-26T06:32:49.155Z,28.62
2018-07-26T06:33:49.988Z,29.13
2018-07-26T06:34:49.689Z,28.09
2018-07-26T06:35:51.462Z,27.87
2018-07-26T06:36:52.231Z,28.08
2018-07-26T06:37:53.036Z,28.28
2018-07-26T06:38:53.828Z,28.32
2018-07-26T06:39:54.618Z,28.16
2018-07-26T06:40:55.387Z,27.87
2018-07-26T06:41:56.593Z,27.97
2018-07-26T06:42:56.922Z,27.71
2018-07-26T06:46:08.263Z,27.77
2018-07-26T06:47:10.058Z,27.77
2018-07-26T06:48:09.864Z,27.39
2018-07-26T06:49:11.629Z,26.61
2018-07-26T06:50:12.398Z,27.05
2018-07-26T06:51:13.176Z,27.62
2018-07-26T06:52:14.034Z,27.50
2018-07-26T06:53:13.765Z,27.54
2018-07-26T06:54:15.541Z,27.43
2018-07-26T06:55:16.322Z,27.34
2018-07-26T06:56:17.099Z,27.53
2018-07-26T06:57:17.875Z,27.34
2018-07-26T06:58:18.696Z,26.71
2018-07-26T06:59:19.466Z,27.52
2018-07-26T07:00:20.245Z,26.94
2018-07-26T07:01:21.017Z,26.91
2018-07-26T07:02:21.794Z,26.82
2018-07-26T07:03:22.594Z,26.89
2018-07-26T07:04:23.372Z,26.51
2018-07-26T07:05:24.147Z,26.83
2018-07-26T07:06:25.920Z,26.77
2018-07-26T07:07:25.697Z,25.87
2018-07-26T07:08:26.521Z,25.35
2018-07-26T07:09:27.286Z,25.89
2018-07-26T07:10:28.069Z,26.11
2018-07-26T07:11:28.840Z,25.26
2018-07-26T07:12:29.619Z,25.29
2018-07-26T07:13:30.424Z,25.47
2018-07-26T07:14:31.203Z,25.26
2018-07-26T07:15:31.994Z,25.11
2018-07-26T07:16:32.764Z,25.93
2018-07-26T07:17:33.546Z,26.21
2018-07-26T07:18:34.392Z,26.00
2018-07-26T07:19:34.137Z,25.78
2018-07-26T07:20:36.974Z,25.53
2018-07-26T07:21:35.693Z,25.84
2018-07-26T07:22:37.472Z,26.01
2018-07-26T07:23:38.272Z,26.45
2018-07-26T07:24:39.045Z,27.19
2018-07-26T07:25:39.845Z,26.51
2018-07-26T07:26:40.613Z,26.35
2018-07-26T07:27:41.532Z,26.77
2018-07-26T07:28:41.200Z,27.06
2018-07-26T07:29:42.979Z,27.02
2018-07-26T07:30:43.755Z,27.20
2018-07-26T07:31:44.532Z,27.22
2018-07-26T07:32:45.308Z,27.40
2018-07-26T07:33:46.114Z,27.63
2018-07-26T07:34:46.897Z,27.48
2018-07-26T07:35:47.668Z,28.09
2018-07-26T07:36:48.445Z,27.79
2018-07-26T07:37:49.218Z,27.93
2018-07-26T07:38:50.024Z,27.80
2018-07-26T07:39:50.802Z,27.97
2018-07-26T07:40:51.588Z,28.42
2018-07-26T07:41:52.374Z,28.24
2018-07-26T07:42:53.137Z,28.41
2018-07-26T07:43:53.945Z,28.92
2018-07-26T07:44:54.725Z,29.28
2018-07-26T07:45:55.496Z,29.50
2018-07-26T07:46:56.274Z,29.50
2018-07-26T07:47:57.057Z,29.61
2018-07-26T07:48:57.857Z,29.84
2018-07-26T07:49:58.635Z,31.14
2018-07-26T07:50:59.413Z,30.93
2018-07-26T07:52:00.203Z,31.32
2018-07-26T07:53:00.985Z,31.16
2018-07-26T07:54:00.790Z,31.37
2018-07-26T07:55:02.653Z,32.58
2018-07-26T07:56:02.356Z,31.93
2018-07-26T07:57:04.131Z,31.20
2018-07-26T07:58:04.909Z,31.94
2018-07-26T07:59:05.738Z,32.39
2018-07-26T08:00:06.501Z,32.76
2018-07-26T08:01:07.271Z,32.96
2018-07-26T08:02:08.065Z,32.97
2018-07-26T08:03:08.827Z,33.19
2018-07-26T08:04:09.632Z,33.00
2018-07-26T08:05:10.418Z,33.36
2018-07-26T08:06:11.195Z,32.93
2018-07-26T08:07:11.975Z,33.29
2018-07-26T08:08:12.745Z,33.45
2018-07-26T08:09:13.550Z,33.42
2018-07-26T08:10:14.326Z,33.70
2018-07-26T08:11:15.145Z,33.12
2018-07-26T08:12:14.881Z,32.24
2018-07-26T08:13:16.655Z,32.62
2018-07-26T08:14:17.480Z,32.25
2018-07-26T08:15:18.250Z,32.19
2018-07-26T08:16:19.027Z,33.00
2018-07-26T08:17:19.806Z,32.50
2018-07-26T08:18:20.590Z,32.88
2018-07-26T08:19:21.403Z,33.18
2018-07-26T08:20:22.177Z,33.36
2018-07-26T08:21:22.986Z,33.76
2018-07-26T08:22:22.728Z,33.35
2018-07-26T08:23:24.506Z,33.75
2018-07-26T08:24:25.331Z,33.40
2018-07-26T08:25:26.106Z,33.79
2018-07-26T08:26:26.884Z,33.69
2018-07-26T08:27:27.668Z,32.91
2018-07-26T08:28:28.447Z,32.66
2018-07-26T08:29:29.277Z,32.20
2018-07-26T08:30:29.029Z,32.28
2018-07-26T08:31:30.801Z,32.24
2018-07-26T08:32:31.618Z,32.21
2018-07-26T08:33:31.355Z,33.24
2018-07-26T08:34:33.157Z,33.44
